createdAt,value
2017-07-29T00:00:39.444Z,6.40
2017-07-29T00:03:06.924Z,8.97
2017-07-29T00:05:34.411Z,5.50
2017-07-29T00:08:01.906Z,5.90
2017-07-29T00:10:30.141Z,6.30
2017-07-29T00:12:57.618Z,9.13
2017-07-29T00:15:25.112Z,7.97
2017-07-29T00:17:52.586Z,5.77
2017-07-29T00:20:20.075Z,6.30
2017-07-29T00:22:47.563Z,8.03
2017-07-29T00:25:15.046Z,17.67
2017-07-29T00:27:42.521Z,11.40
2017-07-29T00:30:10.020Z,9.50
2017-07-29T00:32:37.494Z,6.67
2017-07-29T00:35:05.747Z,5.97
2017-07-29T00:37:33.247Z,5.57
2017-07-29T00:40:01.490Z,12.03
2017-07-29T00:42:28.970Z,6.97
2017-07-29T00:44:56.457Z,8.73
2017-07-29T00:47:23.937Z,8.00
2017-07-29T00:49:51.422Z,12.90
2017-07-29T00:52:18.916Z,7.80
2017-07-29T00:54:46.407Z,8.37
2017-07-29T00:57:13.893Z,7.17
2017-07-29T00:59:41.395Z,8.50
2017-07-29T01:02:08.882Z,7.57
2017-07-29T01:04:36.366Z,6.43
2017-07-29T01:07:03.857Z,4.53
2017-07-29T01:09:32.106Z,13.47
2017-07-29T01:11:59.582Z,22.80
2017-07-29T01:14:27.065Z,8.30
2017-07-29T01:16:55.310Z,9.10
2017-07-29T01:19:22.777Z,8.17
2017-07-29T01:21:50.273Z,10.20
2017-07-29T01:24:17.747Z,5.40
2017-07-29T01:26:45.221Z,9.43
2017-07-29T01:29:12.709Z,9.33
2017-07-29T01:31:40.186Z,13.43
2017-07-29T01:34:07.666Z,7.23
2017-07-29T01:36:35.167Z,10.00
2017-07-29T01:39:02.656Z,7.30
2017-07-29T01:41:30.902Z,8.70
2017-07-29T01:43:58.388Z,9.50
2017-07-29T01:46:25.868Z,10.90
2017-07-29T01:48:54.123Z,11.23
2017-07-29T01:51:21.627Z,9.20
2017-07-29T01:53:49.106Z,9.73
2017-07-29T01:56:16.586Z,6.90
2017-07-29T01:58:44.078Z,10.07
2017-07-29T02:01:11.549Z,6.20
2017-07-29T02:03:39.051Z,10.57
2017-07-29T02:06:06.537Z,11.13
2017-07-29T02:08:34.013Z,11.20
2017-07-29T02:11:01.496Z,9.00
2017-07-29T02:13:28.985Z,12.13
2017-07-29T02:15:56.454Z,7.47
2017-07-29T02:18:23.943Z,9.07
2017-07-29T02:20:51.440Z,9.60
2017-07-29T02:23:18.922Z,9.00
2017-07-29T02:25:46.395Z,7.53
2017-07-29T02:28:13.881Z,8.10
2017-07-29T02:30:41.356Z,8.50
2017-07-29T02:33:08.847Z,15.03
2017-07-29T02:35:36.350Z,9.37
2017-07-29T02:38:04.589Z,8.93
2017-07-29T02:40:32.074Z,10.70
2017-07-29T02:42:59.574Z,10.87
2017-07-29T02:45:27.069Z,7.90
2017-07-29T02:47:54.563Z,13.10
2017-07-29T02:50:22.818Z,9.53
2017-07-29T02:52:50.290Z,8.30
2017-07-29T02:55:17.774Z,6.90
2017-07-29T02:57:45.321Z,9.83
2017-07-29T03:00:13.556Z,7.93
2017-07-29T03:02:41.034Z,8.47
2017-07-29T03:05:08.525Z,9.23
2017-07-29T03:07:36.009Z,7.97
2017-07-29T03:10:03.498Z,9.63
2017-07-29T03:12:30.981Z,7.90
2017-07-29T03:14:58.459Z,5.03
2017-07-29T03:17:25.936Z,10.63
2017-07-29T03:19:53.428Z,5.60
2017-07-29T03:22:20.915Z,6.17
2017-07-29T03:24:48.393Z,6.57
2017-07-29T03:27:15.883Z,6.80
2017-07-29T03:29:43.358Z,9.50
2017-07-29T03:32:10.837Z,7.73
2017-07-29T03:34:38.338Z,6.00
2017-07-29T03:37:05.815Z,16.40
2017-07-29T03:39:33.301Z,10.03
2017-07-29T03:42:00.790Z,9.90
2017-07-29T03:44:29.049Z,19.00
2017-07-29T03:46:56.524Z,6.23
2017-07-29T03:49:24.016Z,13.10
2017-07-29T03:51:51.591Z,5.93
2017-07-29T03:54:19.074Z,8.40
2017-07-29T03:56:46.566Z,9.80
2017-07-29T03:59:14.810Z,8.33
2017-07-29T04:01:42.294Z,11.87
2017-07-29T04:04:09.783Z,8.60
2017-07-29T04:06:37.274Z,11.87
2017-07-29T04:09:04.754Z,7.07
2017-07-29T04:11:32.283Z,6.40
2017-07-29T04:13:59.757Z,9.33
2017-07-29T04:16:27.254Z,11.90
2017-07-29T04:18:55.520Z,16.93
2017-07-29T04:21:22.998Z,10.17
2017-07-29T04:23:51.247Z,10.73
2017-07-29T04:26:18.746Z,9.10
2017-07-29T04:28:46.227Z,9.93
2017-07-29T04:31:13.718Z,11.10
2017-07-29T04:33:41.217Z,10.40
2017-07-29T04:36:08.700Z,9.73
2017-07-29T04:38:36.181Z,10.80
2017-07-29T04:41:03.670Z,9.50
2017-07-29T04:43:31.153Z,11.53
2017-07-29T04:45:58.636Z,7.90
2017-07-29T04:48:26.121Z,9.60
2017-07-29T04:50:53.601Z,7.23
2017-07-29T04:53:21.087Z,11.93
2017-07-29T04:55:48.604Z,10.40
2017-07-29T04:58:16.081Z,9.10
2017-07-29T05:00:43.565Z,6.53
2017-07-29T05:03:11.058Z,7.63
2017-07-29T05:05:38.533Z,13.53
2017-07-29T05:08:06.000Z,8.33
2017-07-29T05:10:33.481Z,9.00
2017-07-29T05:13:00.958Z,11.70
2017-07-29T05:15:28.430Z,9.00
2017-07-29T05:17:55.935Z,10.00
2017-07-29T05:20:23.427Z,6.83
2017-07-29T05:22:51.681Z,18.57
2017-07-29T05:25:19.180Z,8.50
2017-07-29T05:27:46.666Z,10.10
2017-07-29T05:30:14.145Z,20.37
2017-07-29T05:32:41.650Z,10.30
2017-07-29T05:35:09.137Z,11.23
2017-07-29T05:37:36.622Z,9.23
2017-07-29T05:40:04.118Z,6.10
2017-07-29T05:42:32.357Z,9.47
2017-07-29T05:44:59.838Z,7.90
2017-07-29T05:47:27.326Z,4.83
2017-07-29T05:49:54.798Z,6.97
2017-07-29T05:52:22.283Z,7.50
2017-07-29T05:54:49.775Z,8.97
2017-07-29T05:57:17.258Z,8.97
2017-07-29T05:59:45.497Z,7.37
2017-07-29T06:02:12.982Z,11.10
2017-07-29T06:04:41.230Z,9.43
2017-07-29T06:07:08.710Z,11.00
2017-07-29T06:09:36.980Z,12.10
2017-07-29T06:12:04.467Z,9.07
2017-07-29T06:14:32.204Z,12.27
2017-07-29T06:17:00.652Z,17.60
2017-07-29T06:19:28.414Z,13.77
2017-07-29T06:21:56.476Z,20.20
2017-07-29T06:24:23.973Z,20.87
2017-07-29T06:26:51.461Z,16.37
2017-07-29T06:29:18.932Z,18.47
2017-07-29T06:31:46.416Z,18.30
2017-07-29T06:34:13.903Z,16.60
2017-07-29T06:36:41.386Z,13.43
2017-07-29T06:39:09.651Z,23.07
2017-07-29T06:41:37.140Z,20.13
2017-07-29T06:44:04.613Z,16.67
2017-07-29T06:46:32.127Z,20.53
2017-07-29T06:48:59.620Z,19.83
2017-07-29T06:51:27.107Z,25.13
2017-07-29T06:53:54.604Z,29.83
2017-07-29T06:56:22.087Z,24.13
2017-07-29T06:58:49.607Z,24.53
2017-07-29T07:01:17.103Z,29.23
2017-07-29T07:03:44.586Z,29.10
2017-07-29T07:06:12.081Z,26.87
2017-07-29T07:08:39.582Z,29.43
2017-07-29T07:11:07.067Z,24.63
2017-07-29T07:13:34.553Z,27.07
2017-07-29T07:16:02.046Z,31.40
2017-07-29T07:18:30.298Z,26.93
2017-07-29T07:20:57.783Z,29.63
2017-07-29T07:23:26.050Z,28.97
2017-07-29T07:25:53.545Z,31.33
2017-07-29T07:28:21.038Z,17.73
2017-07-29T07:30:48.537Z,30.10
2017-07-29T07:33:16.787Z,15.90
2017-07-29T07:35:44.269Z,32.33
2017-07-29T07:38:11.772Z,33.63
2017-07-29T07:40:39.264Z,31.47
2017-07-29T07:43:06.753Z,29.03
2017-07-29T07:45:35.019Z,24.50
2017-07-29T07:48:02.563Z,28.00
2017-07-29T07:50:30.051Z,29.33
2017-07-29T07:52:58.314Z,33.37
2017-07-29T07:55:25.793Z,32.97
2017-07-29T07:57:53.279Z,24.40
2017-07-29T08:00:20.761Z,24.90
2017-07-29T08:02:48.247Z,42.07
2017-07-29T08:05:15.731Z,28.17
2017-07-29T08:07:43.236Z,33.57
2017-07-29T08:10:10.727Z,35.30
2017-07-29T08:12:38.210Z,34.53
2017-07-29T08:15:05.712Z,34.97
2017-07-29T08:17:33.199Z,25.30
2017-07-29T08:20:00.677Z,34.93
2017-07-29T08:22:28.167Z,25.03
2017-07-29T08:24:55.655Z,31.03
2017-07-29T08:27:23.143Z,32.70
2017-07-29T08:29:50.638Z,33.17
2017-07-29T08:32:18.123Z,29.50
2017-07-29T08:34:45.615Z,23.27
2017-07-29T08:37:13.120Z,24.83
2017-07-29T08:39:40.601Z,35.53
2017-07-29T08:42:08.082Z,34.40
2017-07-29T08:44:35.573Z,30.20
2017-07-29T08:47:03.058Z,26.77
2017-07-29T08:49:30.551Z,39.33
2017-07-29T08:51:58.053Z,27.20
2017-07-29T08:54:26.305Z,36.13
2017-07-29T08:56:53.794Z,31.50
2017-07-29T08:59:21.297Z,33.47
2017-07-29T09:01:48.795Z,33.60
2017-07-29T09:04:16.289Z,32.23
2017-07-29T09:06:44.356Z,37.97
2017-07-29T09:09:11.854Z,37.30
2017-07-29T09:11:39.342Z,30.60
2017-07-29T09:14:07.610Z,17.07
2017-07-29T09:16:35.116Z,26.67
2017-07-29T09:19:02.605Z,28.50
2017-07-29T09:21:30.117Z,29.93
2017-07-29T09:23:57.604Z,56.97
2017-07-29T09:26:25.096Z,33.37
2017-07-29T09:28:52.625Z,25.90
2017-07-29T09:31:20.114Z,24.40
2017-07-29T09:33:47.603Z,21.23
2017-07-29T09:36:15.858Z,17.60
2017-07-29T09:38:43.346Z,21.73
2017-07-29T09:41:10.837Z,21.10
2017-07-29T09:43:38.330Z,15.63
2017-07-29T09:46:05.814Z,18.27
2017-07-29T09:48:34.053Z,22.83
2017-07-29T09:51:01.545Z,22.27
2017-07-29T09:53:29.799Z,23.20
2017-07-29T09:55:57.299Z,23.10
2017-07-29T09:58:24.794Z,13.07
2017-07-29T10:00:52.292Z,17.00
2017-07-29T10:03:19.773Z,12.73
2017-07-29T10:05:47.264Z,12.10
2017-07-29T10:08:14.756Z,17.93
2017-07-29T10:10:42.241Z,18.70
2017-07-29T10:13:10.514Z,14.80
2017-07-29T10:15:38.759Z,14.93
2017-07-29T10:18:06.238Z,10.67
2017-07-29T10:20:34.511Z,22.90
2017-07-29T10:23:01.994Z,15.10
2017-07-29T10:25:30.250Z,14.43
2017-07-29T10:27:57.741Z,13.00
2017-07-29T10:30:25.227Z,16.97
2017-07-29T10:32:52.705Z,15.80
2017-07-29T10:35:20.188Z,12.77
2017-07-29T10:37:47.665Z,14.30
2017-07-29T10:40:15.916Z,12.97
2017-07-29T10:42:43.407Z,10.80
2017-07-29T10:45:10.881Z,24.67
2017-07-29T10:47:38.392Z,12.93
2017-07-29T10:50:06.907Z,16.47
2017-07-29T10:52:35.714Z,15.20
2017-07-29T10:55:03.392Z,13.53
2017-07-29T10:57:31.045Z,14.00
2017-07-29T10:59:59.245Z,16.73
2017-07-29T11:02:27.295Z,13.60
2017-07-29T11:04:54.785Z,11.63
2017-07-29T11:07:22.270Z,11.63
2017-07-29T11:09:50.514Z,13.27
2017-07-29T11:12:18.007Z,12.37
2017-07-29T11:14:46.255Z,14.00
2017-07-29T11:17:13.742Z,11.50
2017-07-29T11:19:42.016Z,13.77
2017-07-29T11:22:09.489Z,14.27
2017-07-29T11:24:37.730Z,11.03
2017-07-29T11:27:05.233Z,11.27
2017-07-29T11:29:32.713Z,10.73
2017-07-29T11:32:00.204Z,12.43
2017-07-29T11:34:27.699Z,17.60
2017-07-29T11:36:55.940Z,12.03
2017-07-29T11:39:23.414Z,14.90
2017-07-29T11:41:50.910Z,8.87
2017-07-29T11:44:18.382Z,16.33
2017-07-29T11:46:45.873Z,16.40
2017-07-29T11:49:13.794Z,16.90
2017-07-29T11:51:41.280Z,14.50
2017-07-29T11:54:08.765Z,19.10
2017-07-29T11:56:36.255Z,15.90
2017-07-29T11:59:04.514Z,14.90
2017-07-29T12:01:31.989Z,16.60
2017-07-29T12:04:00.253Z,16.63
2017-07-29T12:06:27.814Z,11.37
2017-07-29T12:08:55.302Z,12.83
2017-07-29T12:11:22.793Z,122.43
2017-07-29T12:13:50.280Z,177.80
2017-07-29T12:16:17.770Z,67.50
2017-07-29T12:18:46.078Z,34.50
2017-07-29T12:21:13.568Z,29.50
2017-07-29T12:23:41.059Z,47.67
2017-07-29T12:26:09.327Z,39.80
2017-07-29T12:28:37.008Z,29.17
2017-07-29T12:31:05.290Z,27.23
2017-07-29T12:33:32.828Z,19.90
2017-07-29T12:36:00.965Z,27.77
2017-07-29T12:38:28.946Z,8.90
2017-07-29T12:40:57.115Z,10.43
2017-07-29T12:43:25.013Z,12.80
2017-07-29T12:45:53.675Z,15.30
2017-07-29T12:48:21.545Z,15.50
2017-07-29T12:50:49.352Z,10.93
2017-07-29T12:53:18.494Z,11.47
2017-07-29T12:55:46.582Z,18.83
2017-07-29T12:58:14.768Z,13.00
2017-07-29T13:00:42.329Z,13.70
2017-07-29T13:03:10.008Z,13.53
2017-07-29T13:05:38.309Z,12.60
2017-07-29T13:08:05.794Z,14.23
2017-07-29T13:10:33.291Z,9.23
2017-07-29T13:13:00.778Z,19.60
2017-07-29T13:15:29.084Z,11.83
2017-07-29T13:17:56.578Z,11.47
2017-07-29T13:20:24.055Z,13.23
2017-07-29T13:22:51.534Z,13.83
2017-07-29T13:25:19.819Z,7.80
2017-07-29T13:27:47.299Z,13.50
2017-07-29T13:30:14.793Z,10.00
2017-07-29T13:32:42.287Z,7.70
2017-07-29T13:35:10.543Z,7.17
2017-07-29T13:37:38.085Z,10.17
2017-07-29T13:40:05.589Z,10.20
2017-07-29T13:42:33.073Z,8.70
2017-07-29T13:45:00.559Z,12.10
2017-07-29T13:47:28.125Z,10.07
2017-07-29T13:49:55.606Z,8.93
2017-07-29T13:52:23.860Z,10.70
2017-07-29T13:54:51.361Z,8.27
2017-07-29T13:57:18.852Z,11.77
2017-07-29T13:59:46.343Z,11.47
2017-07-29T14:02:13.830Z,6.30
2017-07-29T14:04:42.083Z,7.27
2017-07-29T14:07:09.557Z,9.50
2017-07-29T14:09:37.821Z,11.20
2017-07-29T14:12:06.014Z,8.47
2017-07-29T14:14:34.252Z,10.13
2017-07-29T14:17:01.733Z,7.50
2017-07-29T14:19:29.207Z,8.60
2017-07-29T14:21:57.453Z,8.60
2017-07-29T14:24:24.947Z,7.20
2017-07-29T14:26:53.189Z,12.50
2017-07-29T14:29:20.658Z,5.93
2017-07-29T14:31:48.149Z,11.60
2017-07-29T14:34:15.612Z,6.80
2017-07-29T14:36:43.083Z,8.00
2017-07-29T14:39:10.569Z,9.47
2017-07-29T14:41:38.044Z,7.53
2017-07-29T14:44:05.521Z,7.43
2017-07-29T14:46:33.780Z,6.70
2017-07-29T14:49:01.267Z,7.73
2017-07-29T14:51:29.504Z,8.23
2017-07-29T14:53:57.037Z,8.60
2017-07-29T14:56:24.597Z,9.33
2017-07-29T14:58:52.081Z,10.60
2017-07-29T15:01:19.570Z,11.10
2017-07-29T15:03:47.883Z,9.03
2017-07-29T15:06:15.365Z,8.97
2017-07-29T15:08:42.871Z,10.70
2017-07-29T15:11:11.122Z,13.43
2017-07-29T15:13:38.601Z,5.40
2017-07-29T15:16:06.086Z,6.90
2017-07-29T15:18:33.571Z,7.30
2017-07-29T15:21:01.066Z,10.60
2017-07-29T15:23:28.553Z,6.77
2017-07-29T15:25:56.804Z,6.67
2017-07-29T15:28:24.291Z,7.83
2017-07-29T15:30:52.601Z,8.50
2017-07-29T15:33:20.082Z,7.30
2017-07-29T15:35:47.562Z,10.10
2017-07-29T15:38:15.057Z,10.23
2017-07-29T15:40:42.537Z,7.30
2017-07-29T15:43:10.022Z,5.63
2017-07-29T15:45:37.504Z,12.00
2017-07-29T15:48:04.977Z,8.13
2017-07-29T15:50:33.224Z,12.20
2017-07-29T15:53:00.704Z,8.50
2017-07-29T15:55:28.945Z,15.43
2017-07-29T15:57:56.420Z,8.60
2017-07-29T16:00:23.913Z,53.13
2017-07-29T16:02:51.396Z,8.70
2017-07-29T16:05:18.887Z,9.13
2017-07-29T16:07:46.386Z,17.57
2017-07-29T16:10:14.630Z,11.03
2017-07-29T16:12:42.114Z,13.03
2017-07-29T16:15:10.389Z,7.80
2017-07-29T16:17:38.632Z,13.70
2017-07-29T16:20:06.113Z,10.80
2017-07-29T16:22:34.371Z,7.90
2017-07-29T16:25:01.857Z,12.03
2017-07-29T16:27:30.162Z,15.63
2017-07-29T16:29:57.714Z,13.17
2017-07-29T16:32:25.180Z,7.93
2017-07-29T16:34:52.661Z,9.60
2017-07-29T16:37:20.154Z,15.47
2017-07-29T16:39:47.632Z,6.67
2017-07-29T16:42:15.873Z,8.40
2017-07-29T16:44:43.387Z,10.93
2017-07-29T16:47:10.970Z,7.10
2017-07-29T16:49:38.458Z,8.53
2017-07-29T16:52:05.946Z,9.60
2017-07-29T16:54:34.193Z,15.67
2017-07-29T16:57:01.672Z,9.43
2017-07-29T16:59:29.186Z,16.93
2017-07-29T17:01:56.680Z,9.00
2017-07-29T17:04:24.165Z,12.33
2017-07-29T17:06:52.425Z,11.07
2017-07-29T17:09:19.903Z,9.00
2017-07-29T17:11:48.150Z,12.53
2017-07-29T17:14:15.659Z,7.17
2017-07-29T17:16:43.161Z,11.33
2017-07-29T17:19:10.647Z,13.13
2017-07-29T17:21:38.947Z,9.80
2017-07-29T17:24:06.438Z,7.63
2017-07-29T17:26:33.933Z,18.33
2017-07-29T17:29:01.426Z,11.83
2017-07-29T17:31:29.212Z,9.73
2017-07-29T17:33:57.275Z,11.30
2017-07-29T17:36:24.931Z,10.53
2017-07-29T17:38:52.598Z,8.33
2017-07-29T17:41:20.153Z,11.77
2017-07-29T17:43:48.666Z,9.93
2017-07-29T17:46:16.159Z,11.80
2017-07-29T17:48:43.642Z,13.30
2017-07-29T17:51:11.902Z,9.80
2017-07-29T17:53:39.385Z,13.17
2017-07-29T17:56:07.404Z,6.90
2017-07-29T17:58:34.894Z,10.83
2017-07-29T18:01:03.753Z,13.53
2017-07-29T18:03:31.903Z,14.27
2017-07-29T18:05:59.412Z,10.37
2017-07-29T18:08:26.947Z,10.23
2017-07-29T18:10:54.424Z,7.30
2017-07-29T18:13:23.314Z,14.53
2017-07-29T18:15:51.013Z,9.37
2017-07-29T18:18:18.543Z,5.93
2017-07-29T18:20:46.037Z,20.93
2017-07-29T18:23:13.511Z,16.47
2017-07-29T18:25:40.986Z,7.53
2017-07-29T18:28:08.487Z,9.30
2017-07-29T18:30:35.966Z,11.57
2017-07-29T18:33:03.455Z,10.37
2017-07-29T18:35:30.957Z,13.73
2017-07-29T18:37:58.442Z,9.70
2017-07-29T18:40:25.924Z,8.97
2017-07-29T18:42:53.486Z,6.63
2017-07-29T18:45:20.961Z,6.53
2017-07-29T18:47:48.443Z,12.60
2017-07-29T18:50:15.942Z,10.63
2017-07-29T18:52:43.419Z,9.47
2017-07-29T18:55:10.888Z,8.47
2017-07-29T18:57:38.399Z,14.10
2017-07-29T19:00:06.644Z,10.23
2017-07-29T19:02:34.128Z,11.00
2017-07-29T19:05:01.634Z,17.03
2017-07-29T19:07:29.114Z,10.90
2017-07-29T19:09:56.593Z,17.47
2017-07-29T19:12:24.080Z,10.33
2017-07-29T19:14:51.672Z,12.63
2017-07-29T19:17:19.231Z,10.30
2017-07-29T19:19:46.793Z,12.93
2017-07-29T19:22:14.286Z,9.37
2017-07-29T19:24:41.763Z,7.23
2017-07-29T19:27:09.281Z,10.50
2017-07-29T19:29:36.762Z,20.13
2017-07-29T19:32:04.235Z,9.03
2017-07-29T19:34:31.733Z,8.93
2017-07-29T19:36:59.306Z,15.70
2017-07-29T19:39:26.781Z,13.50
2017-07-29T19:41:54.283Z,7.80
2017-07-29T19:44:21.759Z,9.97
2017-07-29T19:46:49.988Z,6.00
2017-07-29T19:49:17.500Z,10.20
2017-07-29T19:51:44.987Z,12.77
2017-07-29T19:54:12.479Z,18.17
2017-07-29T19:56:39.980Z,13.47
2017-07-29T19:59:07.463Z,13.67
2017-07-29T20:01:34.929Z,8.10
2017-07-29T20:04:02.432Z,8.50
2017-07-29T20:06:30.686Z,10.67
2017-07-29T20:08:58.165Z,13.93
2017-07-29T20:11:25.674Z,8.80
2017-07-29T20:13:53.149Z,8.47
2017-07-29T20:16:20.640Z,9.60
2017-07-29T20:18:48.790Z,14.83
2017-07-29T20:21:16.263Z,9.03
2017-07-29T20:23:43.789Z,7.93
2017-07-29T20:26:11.384Z,13.10
2017-07-29T20:28:39.646Z,8.20
2017-07-29T20:31:07.405Z,7.20
2017-07-29T20:33:34.914Z,11.17
2017-07-29T20:36:03.165Z,14.30
2017-07-29T20:38:30.677Z,15.33
2017-07-29T20:40:58.174Z,13.00
2017-07-29T20:43:25.659Z,12.30
2017-07-29T20:45:53.904Z,11.57
2017-07-29T20:48:21.535Z,13.63
2017-07-29T20:50:49.019Z,11.70
2017-07-29T20:53:16.510Z,10.17
2017-07-29T20:55:44.019Z,11.60
2017-07-29T20:58:11.496Z,18.80
2017-07-29T21:00:38.988Z,7.60
2017-07-29T21:03:07.263Z,8.53
2017-07-29T21:05:34.744Z,6.50
2017-07-29T21:08:02.219Z,9.67
2017-07-29T21:10:29.957Z,13.10
2017-07-29T21:12:58.216Z,8.50
2017-07-29T21:15:25.694Z,6.87
2017-07-29T21:17:53.961Z,11.27
2017-07-29T21:20:22.272Z,9.00
2017-07-29T21:22:49.744Z,13.60
2017-07-29T21:25:17.249Z,13.40
2017-07-29T21:27:44.778Z,11.13
2017-07-29T21:30:12.267Z,8.63
2017-07-29T21:32:39.952Z,11.57
2017-07-29T21:35:07.439Z,7.93
2017-07-29T21:37:34.919Z,9.83
2017-07-29T21:40:02.416Z,6.40
2017-07-29T21:42:30.666Z,10.37
2017-07-29T21:44:58.148Z,19.40
2017-07-29T21:47:25.642Z,7.33
2017-07-29T21:49:53.114Z,8.33
2017-07-29T21:52:20.593Z,9.60
2017-07-29T21:54:48.088Z,7.60
2017-07-29T21:57:16.342Z,11.67
2017-07-29T21:59:43.822Z,7.13
2017-07-29T22:02:11.317Z,8.67
2017-07-29T22:04:38.792Z,13.87
2017-07-29T22:07:06.269Z,11.57
2017-07-29T22:09:33.769Z,19.50
2017-07-29T22:12:02.010Z,9.40
2017-07-29T22:14:29.505Z,15.47
2017-07-29T22:16:57.784Z,12.20
2017-07-29T22:19:26.025Z,14.53
2017-07-29T22:21:53.516Z,14.40
2017-07-29T22:24:21.034Z,18.47
2017-07-29T22:26:48.509Z,10.43
2017-07-29T22:29:15.991Z,8.80
2017-07-29T22:31:44.402Z,7.00
2017-07-29T22:34:11.869Z,6.53
2017-07-29T22:36:40.015Z,13.43
2017-07-29T22:39:08.182Z,11.17
2017-07-29T22:41:35.664Z,7.40
2017-07-29T22:44:03.141Z,15.63
2017-07-29T22:46:30.629Z,12.77
2017-07-29T22:48:58.140Z,12.90
2017-07-29T22:51:25.635Z,10.73
2017-07-29T22:53:53.138Z,14.20
2017-07-29T22:56:21.374Z,6.37
2017-07-29T22:58:48.858Z,13.00
2017-07-29T23:01:17.130Z,9.43
2017-07-29T23:03:44.616Z,8.50
2017-07-29T23:06:12.097Z,6.47
2017-07-29T23:08:39.594Z,10.10
2017-07-29T23:11:07.077Z,9.53
2017-07-29T23:13:34.557Z,7.43
2017-07-29T23:16:02.058Z,5.67
2017-07-29T23:18:29.530Z,6.10
2017-07-29T23:20:57.009Z,5.53
2017-07-29T23:23:25.296Z,9.03
2017-07-29T23:25:52.768Z,7.73
2017-07-29T23:28:20.237Z,5.40
2017-07-29T23:30:47.740Z,7.57
2017-07-29T23:33:15.218Z,5.00
2017-07-29T23:35:43.470Z,5.40
2017-07-29T23:38:10.971Z,6.13
2017-07-29T23:40:38.450Z,6.10
2017-07-29T23:43:05.915Z,7.27
2017-07-29T23:45:33.424Z,5.20
2017-07-29T23:48:00.912Z,6.37
2017-07-29T23:50:28.403Z,4.70
2017-07-29T23:52:55.899Z,4.80
2017-07-29T23:55:23.381Z,10.23
2017-07-29T23:57:50.858Z,4.20
